createdAt,value
2023-02-22T00:00:59.582Z,4.40
2023-02-22T00:05:01.216Z,4.50
2023-02-22T00:09:03.498Z,4.50
2023-02-22T00:13:07.476Z,4.50
2023-02-22T00:17:09.605Z,4.50
2023-02-22T00:21:12.445Z,4.60
2023-02-22T00:25:17.184Z,4.50
2023-02-22T00:29:18.874Z,4.50
2023-02-22T00:33:20.738Z,4.40
2023-02-22T00:37:22.445Z,4.40
2023-02-22T00:41:24.241Z,4.30
2023-02-22T00:45:28.080Z,4.40
2023-02-22T00:49:29.706Z,4.30
2023-02-22T00:53:31.363Z,4.30
2023-02-22T00:57:35.034Z,4.50
2023-02-22T01:01:36.640Z,4.50
2023-02-22T01:05:38.673Z,4.50
2023-02-22T01:09:41.476Z,4.60
2023-02-22T01:13:45.186Z,4.60
2023-02-22T01:17:47.538Z,4.80
2023-02-22T01:21:50.033Z,4.80
2023-02-22T01:25:51.668Z,4.70
2023-02-22T01:29:53.308Z,4.60
2023-02-22T01:33:54.926Z,4.70
2023-02-22T01:37:57.997Z,4.60
2023-02-22T01:41:59.651Z,4.60
2023-02-22T01:46:05.310Z,4.60
2023-02-22T01:50:07.012Z,4.60
2023-02-22T01:54:15.197Z,4.60
2023-02-22T01:58:18.656Z,4.60
2023-02-22T02:02:25.052Z,4.50
2023-02-22T02:06:29.373Z,4.40
2023-02-22T02:10:32.223Z,4.30
2023-02-22T02:14:40.121Z,4.20
2023-02-22T02:18:42.707Z,4.20
2023-02-22T02:23:13.279Z,4.20
2023-02-22T02:27:30.710Z,4.20
2023-02-22T02:31:51.220Z,4.20
2023-02-22T02:36:01.209Z,4.10
2023-02-22T02:40:47.508Z,4.00
2023-02-22T02:44:56.205Z,4.00
2023-02-22T02:49:07.094Z,3.90
2023-02-22T02:53:10.454Z,4.00
2023-02-22T02:57:12.466Z,3.80
2023-02-22T03:01:30.334Z,3.80
2023-02-22T03:05:37.616Z,3.60
2023-02-22T03:09:45.100Z,3.50
2023-02-22T03:14:33.123Z,3.50
2023-02-22T03:19:05.080Z,3.50
2023-02-22T03:23:34.091Z,3.50
2023-02-22T03:27:43.544Z,3.70
2023-02-22T03:32:01.889Z,3.80
2023-02-22T03:36:17.943Z,3.80
2023-02-22T03:40:28.002Z,3.90
2023-02-22T03:44:33.508Z,3.90
2023-02-22T03:48:43.940Z,3.90
2023-02-22T03:52:47.361Z,3.90
2023-02-22T03:57:00.522Z,3.90
2023-02-22T04:01:02.417Z,3.90
2023-02-22T04:05:04.244Z,4.00
2023-02-22T04:09:08.460Z,4.00
2023-02-22T04:13:10.622Z,4.00
2023-02-22T04:17:12.333Z,4.10
2023-02-22T04:21:14.855Z,4.10
2023-02-22T04:25:16.821Z,4.00
2023-02-22T04:29:18.469Z,4.10
2023-02-22T04:33:20.180Z,4.20
2023-02-22T04:37:21.786Z,4.20
2023-02-22T04:41:25.458Z,4.20
2023-02-22T04:45:27.355Z,4.10
2023-02-22T04:49:29.045Z,4.20
2023-02-22T04:53:30.680Z,4.30
2023-02-22T04:57:32.612Z,4.40
2023-02-22T05:01:36.003Z,4.50
2023-02-22T05:05:37.691Z,4.50
2023-02-22T05:09:39.322Z,4.50
2023-02-22T05:13:42.121Z,4.50
2023-02-22T05:17:43.768Z,4.40
2023-02-22T05:21:45.569Z,4.50
2023-02-22T05:25:47.500Z,4.40
2023-02-22T05:29:49.173Z,4.40
2023-02-22T05:33:50.845Z,4.40
2023-02-22T05:37:53.076Z,4.30
2023-02-22T05:41:54.769Z,4.30
2023-02-22T05:45:56.395Z,4.30
2023-02-22T05:49:58.106Z,4.30
2023-02-22T05:53:59.766Z,4.30
2023-02-22T05:58:02.049Z,4.20
2023-02-22T06:02:03.750Z,4.10
2023-02-22T06:06:05.645Z,4.20
2023-02-22T06:10:07.446Z,4.10
2023-02-22T06:14:09.219Z,4.10
2023-02-22T06:18:10.940Z,4.10
2023-02-22T06:22:18.441Z,4.10
2023-02-22T06:26:20.101Z,4.10
2023-02-22T06:30:24.500Z,4.00
2023-02-22T06:34:26.187Z,3.90
2023-02-22T06:38:27.868Z,3.90
2023-02-22T06:42:29.667Z,3.90
2023-02-22T06:46:31.585Z,3.80
2023-02-22T06:50:35.847Z,3.70
2023-02-22T06:54:39.086Z,3.70
2023-02-22T06:58:40.729Z,3.70
2023-02-22T07:02:43.180Z,3.70
2023-02-22T07:06:46.857Z,3.70
2023-02-22T07:10:50.304Z,3.70
2023-02-22T07:14:55.466Z,3.70
2023-02-22T07:18:57.168Z,3.70
2023-02-22T07:22:59.434Z,3.90
2023-02-22T07:27:02.428Z,4.20
2023-02-22T07:31:04.875Z,4.30
2023-02-22T07:35:06.876Z,4.40
2023-02-22T07:39:08.637Z,4.60
2023-02-22T07:43:16.514Z,4.80
2023-02-22T07:47:18.134Z,5.00
2023-02-22T07:51:20.639Z,5.20
2023-02-22T07:55:25.141Z,5.50
2023-02-22T07:59:26.832Z,5.80
2023-02-22T08:03:36.331Z,6.10
2023-02-22T08:07:38.220Z,6.30
2023-02-22T08:11:39.847Z,6.70
2023-02-22T08:15:43.883Z,7.00
2023-02-22T08:19:45.508Z,7.20
2023-02-22T08:23:51.375Z,7.50
2023-02-22T08:27:58.558Z,7.60
2023-02-22T08:32:00.665Z,7.80
2023-02-22T08:36:02.367Z,8.00
2023-02-22T08:40:04.201Z,8.30
2023-02-22T08:44:05.821Z,8.50
2023-02-22T08:48:07.564Z,8.70
2023-02-22T08:52:09.433Z,8.90
2023-02-22T08:56:11.570Z,9.20
2023-02-22T09:00:13.864Z,9.30
2023-02-22T09:04:15.481Z,9.50
2023-02-22T09:08:17.361Z,9.70
2023-02-22T09:12:18.999Z,9.90
2023-02-22T09:16:20.659Z,10.10
2023-02-22T09:20:24.532Z,10.30
2023-02-22T09:24:26.558Z,10.40
2023-02-22T09:28:29.251Z,10.70
2023-02-22T09:32:31.175Z,11.10
2023-02-22T09:36:33.120Z,11.50
2023-02-22T09:40:44.727Z,12.00
2023-02-22T09:44:59.871Z,12.20
2023-02-22T09:49:20.361Z,12.70
2023-02-22T09:53:55.577Z,12.80
2023-02-22T09:58:02.333Z,13.10
2023-02-22T10:02:11.477Z,13.40
2023-02-22T10:06:17.178Z,13.50
2023-02-22T10:10:21.270Z,13.70
2023-02-22T10:14:43.765Z,14.00
2023-02-22T10:18:45.522Z,14.20
2023-02-22T10:23:24.221Z,13.90
2023-02-22T10:27:54.199Z,13.90
2023-02-22T10:32:01.909Z,14.10
2023-02-22T10:36:04.346Z,14.30
2023-02-22T10:40:22.793Z,13.90
2023-02-22T10:44:24.878Z,13.60
2023-02-22T10:48:30.118Z,13.50
2023-02-22T10:52:33.793Z,13.20
2023-02-22T10:56:35.708Z,13.30
2023-02-22T11:00:39.775Z,13.20
2023-02-22T11:04:49.382Z,13.30
2023-02-22T11:08:52.061Z,13.00
2023-02-22T11:12:53.750Z,13.00
2023-02-22T11:16:57.112Z,13.30
2023-02-22T11:21:06.306Z,13.40
2023-02-22T11:25:08.805Z,13.70
2023-02-22T11:29:33.858Z,13.90
2023-02-22T11:33:37.734Z,13.90
2023-02-22T11:37:39.422Z,13.90
2023-02-22T11:41:41.698Z,14.00
2023-02-22T11:46:02.411Z,14.00
2023-02-22T11:50:17.832Z,14.10
2023-02-22T11:54:28.786Z,14.10
2023-02-22T11:58:42.636Z,14.20
2023-02-22T12:03:02.896Z,14.70
2023-02-22T12:07:16.746Z,14.60
2023-02-22T12:11:48.024Z,14.70
2023-02-22T12:16:23.822Z,14.90
2023-02-22T12:20:36.208Z,15.00
2023-02-22T12:24:51.618Z,15.10
2023-02-22T12:29:38.536Z,15.30
2023-02-22T12:33:50.834Z,15.40
2023-02-22T12:38:06.430Z,15.40
2023-02-22T12:42:16.706Z,15.50
2023-02-22T12:46:26.840Z,15.30
2023-02-22T12:50:34.285Z,15.70
2023-02-22T12:55:11.079Z,15.80
2023-02-22T12:59:25.543Z,16.30
2023-02-22T13:03:36.354Z,16.50
2023-02-22T13:07:56.222Z,16.80
2023-02-22T13:12:13.143Z,16.70
2023-02-22T13:16:53.430Z,16.90
2023-02-22T13:21:01.359Z,16.80
2023-02-22T13:25:19.224Z,17.00
2023-02-22T13:29:28.538Z,17.40
2023-02-22T13:33:53.230Z,17.70
2023-02-22T13:38:00.478Z,17.10
2023-02-22T13:42:43.926Z,17.20
2023-02-22T13:47:08.658Z,16.90
2023-02-22T13:51:20.549Z,16.80
2023-02-22T13:55:32.523Z,16.90
2023-02-22T13:59:36.856Z,17.10
2023-02-22T14:03:41.007Z,17.20
2023-02-22T14:07:47.966Z,17.30
2023-02-22T14:11:56.625Z,17.60
2023-02-22T14:16:02.136Z,17.50
2023-02-22T14:20:20.961Z,17.70
2023-02-22T14:24:22.875Z,17.40
2023-02-22T14:28:51.295Z,16.80
2023-02-22T14:32:53.126Z,16.30
2023-02-22T14:36:57.206Z,16.30
2023-02-22T14:41:00.623Z,15.90
2023-02-22T14:45:14.158Z,15.60
2023-02-22T14:49:20.830Z,15.50
2023-02-22T14:53:22.394Z,15.20
2023-02-22T14:57:30.649Z,15.10
2023-02-22T15:02:02.264Z,15.10
2023-02-22T15:05:59.571Z,15.00
2023-02-22T15:10:26.143Z,15.30
2023-02-22T15:14:27.841Z,15.40
2023-02-22T15:18:38.348Z,15.50
2023-02-22T15:22:40.061Z,15.50
2023-02-22T15:26:59.070Z,15.40
2023-02-22T15:31:35.028Z,15.20
2023-02-22T15:35:37.528Z,14.90
2023-02-22T15:39:43.717Z,14.80
2023-02-22T15:43:45.484Z,14.50
2023-02-22T15:47:49.329Z,14.40
2023-02-22T15:52:03.596Z,14.20
2023-02-22T15:56:10.352Z,14.00
2023-02-22T16:00:36.047Z,13.90
2023-02-22T16:04:37.967Z,13.90
2023-02-22T16:08:55.118Z,13.70
2023-02-22T16:13:31.146Z,13.70
2023-02-22T16:17:49.482Z,13.70
2023-02-22T16:22:03.112Z,13.60
2023-02-22T16:26:16.324Z,13.50
2023-02-22T16:30:24.297Z,13.40
2023-02-22T16:34:26.271Z,13.40
2023-02-22T16:38:33.817Z,13.20
2023-02-22T16:42:35.477Z,13.10
2023-02-22T16:46:37.753Z,13.00
2023-02-22T16:50:39.887Z,12.80
2023-02-22T16:54:45.018Z,12.60
2023-02-22T16:58:49.881Z,12.40
2023-02-22T17:02:51.521Z,12.30
2023-02-22T17:06:53.366Z,12.20
2023-02-22T17:10:57.272Z,12.10
2023-02-22T17:14:59.054Z,12.00
2023-02-22T17:19:00.890Z,12.00
2023-02-22T17:23:10.373Z,12.00
2023-02-22T17:27:12.199Z,11.70
2023-02-22T17:31:22.543Z,11.60
2023-02-22T17:35:26.067Z,11.30
2023-02-22T17:39:27.894Z,11.20
2023-02-22T17:43:29.776Z,11.20
2023-02-22T17:47:31.388Z,11.10
2023-02-22T17:51:33.158Z,11.10
2023-02-22T17:55:37.693Z,11.00
2023-02-22T17:59:40.596Z,11.10
2023-02-22T18:03:42.344Z,11.00
2023-02-22T18:07:47.005Z,11.00
2023-02-22T18:11:48.676Z,11.00
2023-02-22T18:15:50.609Z,10.80
2023-02-22T18:19:52.264Z,10.70
2023-02-22T18:23:54.819Z,10.60
2023-02-22T18:27:56.470Z,10.70
2023-02-22T18:31:58.560Z,10.70
2023-02-22T18:36:00.249Z,10.80
2023-02-22T18:40:01.911Z,10.90
2023-02-22T18:44:05.518Z,10.90
2023-02-22T18:48:07.110Z,10.90
2023-02-22T18:52:11.840Z,10.90
2023-02-22T18:56:21.553Z,10.80
2023-02-22T19:00:28.470Z,10.80
2023-02-22T19:04:30.109Z,10.80
2023-02-22T19:08:32.353Z,10.70
2023-02-22T19:12:34.144Z,10.60
2023-02-22T19:16:35.849Z,10.50
2023-02-22T19:20:37.516Z,10.40
2023-02-22T19:24:39.730Z,10.30
2023-02-22T19:28:41.313Z,10.10
2023-02-22T19:32:47.267Z,10.00
2023-02-22T19:36:49.968Z,9.90
2023-02-22T19:40:51.881Z,9.80
2023-02-22T19:44:53.723Z,9.60
2023-02-22T19:48:57.189Z,9.60
2023-02-22T19:52:59.136Z,9.50
2023-02-22T19:57:01.178Z,9.40
2023-02-22T20:01:13.463Z,9.40
2023-02-22T20:05:16.370Z,9.40
2023-02-22T20:09:20.778Z,9.40
2023-02-22T20:13:22.418Z,9.30
2023-02-22T20:17:25.402Z,9.20
2023-02-22T20:21:32.069Z,9.10
2023-02-22T20:25:35.271Z,9.10
2023-02-22T20:29:36.989Z,9.20
2023-02-22T20:33:41.477Z,9.40
2023-02-22T20:37:43.443Z,9.50
2023-02-22T20:41:46.352Z,9.40
2023-02-22T20:45:47.979Z,9.40
2023-02-22T20:49:49.639Z,9.40
2023-02-22T20:53:51.713Z,9.50
2023-02-22T20:57:53.390Z,9.30
2023-02-22T21:01:55.485Z,9.40
2023-02-22T21:05:57.187Z,9.40
2023-02-22T21:09:58.917Z,9.40
2023-02-22T21:14:01.518Z,9.30
2023-02-22T21:18:04.442Z,9.30
2023-02-22T21:22:08.063Z,9.30
2023-02-22T21:26:16.001Z,9.40
2023-02-22T21:30:18.001Z,9.40
2023-02-22T21:34:20.893Z,9.30
2023-02-22T21:38:22.507Z,9.50
2023-02-22T21:42:24.699Z,9.40
2023-02-22T21:46:27.878Z,9.40
2023-02-22T21:50:30.430Z,9.30
2023-02-22T21:54:32.026Z,9.20
2023-02-22T21:58:33.656Z,9.30
2023-02-22T22:02:37.886Z,9.30
2023-02-22T22:06:39.684Z,9.30
2023-02-22T22:10:41.315Z,9.40
2023-02-22T22:14:42.986Z,9.30
2023-02-22T22:18:46.708Z,9.30
2023-02-22T22:22:49.043Z,9.20
2023-02-22T22:26:54.404Z,9.30
2023-02-22T22:30:56.152Z,9.20
2023-02-22T22:34:59.293Z,9.10
2023-02-22T22:39:01.092Z,9.10
2023-02-22T22:43:03.016Z,9.10
2023-02-22T22:47:05.799Z,9.10
2023-02-22T22:51:12.976Z,9.00
2023-02-22T22:55:14.808Z,9.00
2023-02-22T22:59:17.765Z,9.10
2023-02-22T23:03:19.635Z,9.00
2023-02-22T23:07:21.317Z,9.00
2023-02-22T23:11:22.941Z,9.00
2023-02-22T23:15:25.706Z,9.00
2023-02-22T23:19:27.367Z,8.90
2023-02-22T23:23:29.005Z,8.90
2023-02-22T23:27:30.692Z,8.90
2023-02-22T23:31:32.445Z,9.00
2023-02-22T23:35:34.341Z,8.90
2023-02-22T23:39:36.326Z,8.80
2023-02-22T23:43:42.712Z,8.80
2023-02-22T23:47:44.344Z,8.70
2023-02-22T23:51:46.694Z,8.80
2023-02-22T23:55:49.019Z,8.80
2023-02-22T23:59:51.196Z,8.80
